sensor_id;sensor_type;location;lat;lon;timestamp;P1;durP1;ratioP1;P2;durP2;ratioP2
82292;SDS011;71892;14.836;105.234;2023-12-07T00:01:12;4.30;;;2.00;;
82292;SDS011;71892;14.836;105.234;2023-12-07T00:03:38;4.85;;;2.13;;
82292;SDS011;71892;14.836;105.234;2023-12-07T00:06:04;5.07;;;1.90;;
82292;SDS011;71892;14.836;105.234;2023-12-07T00:08:31;4.97;;;1.80;;
82292;SDS011;71892;14.836;105.234;2023-12-07T00:10:57;5.55;;;2.70;;
82292;SDS011;71892;14.836;105.234;2023-12-07T00:13:23;4.35;;;1.70;;
82292;SDS011;71892;14.836;105.234;2023-12-07T00:15:50;3.53;;;1.13;;
82292;SDS011;71892;14.836;105.234;2023-12-07T00:18:16;3.17;;;1.50;;
82292;SDS011;71892;14.836;105.234;2023-12-07T00:20:42;6.00;;;1.20;;
82292;SDS011;71892;14.836;105.234;2023-12-07T00:23:09;5.65;;;1.38;;
82292;SDS011;71892;14.836;105.234;2023-12-07T00:25:35;4.25;;;1.60;;
82292;SDS011;71892;14.836;105.234;2023-12-07T00:28:01;5.05;;;1.40;;
82292;SDS011;71892;14.836;105.234;2023-12-07T00:30:28;4.05;;;1.52;;
82292;SDS011;71892;14.836;105.234;2023-12-07T00:32:54;3.88;;;1.30;;
82292;SDS011;71892;14.836;105.234;2023-12-07T00:35:21;5.10;;;1.35;;
82292;SDS011;71892;14.836;105.234;2023-12-07T00:37:47;7.90;;;1.50;;
82292;SDS011;71892;14.836;105.234;2023-12-07T00:40:14;5.43;;;1.70;;
82292;SDS011;71892;14.836;105.234;2023-12-07T00:42:41;5.82;;;2.05;;
82292;SDS011;71892;14.836;105.234;2023-12-07T00:45:08;5.63;;;1.48;;
82292;SDS011;71892;14.836;105.234;2023-12-07T00:47:35;4.60;;;1.88;;
82292;SDS011;71892;14.836;105.234;2023-12-07T00:50:01;3.85;;;1.20;;
82292;SDS011;71892;14.836;105.234;2023-12-07T00:52:27;21.02;;;1.92;;
82292;SDS011;71892;14.836;105.234;2023-12-07T00:54:54;6.22;;;1.67;;
82292;SDS011;71892;14.836;105.234;2023-12-07T00:57:20;7.22;;;2.13;;
82292;SDS011;71892;14.836;105.234;2023-12-07T00:59:47;3.92;;;1.80;;
82292;SDS011;71892;14.836;105.234;2023-12-07T01:02:13;5.43;;;2.08;;
82292;SDS011;71892;14.836;105.234;2023-12-07T01:04:39;4.35;;;1.80;;
82292;SDS011;71892;14.836;105.234;2023-12-07T01:07:06;4.80;;;2.53;;
82292;SDS011;71892;14.836;105.234;2023-12-07T01:09:33;4.63;;;2.00;;
82292;SDS011;71892;14.836;105.234;2023-12-07T01:11:58;4.95;;;1.80;;
82292;SDS011;71892;14.836;105.234;2023-12-07T01:14:25;4.55;;;1.85;;
82292;SDS011;71892;14.836;105.234;2023-12-07T01:16:51;6.22;;;2.00;;
82292;SDS011;71892;14.836;105.234;2023-12-07T01:19:18;4.60;;;2.10;;
82292;SDS011;71892;14.836;105.234;2023-12-07T01:21:44;6.97;;;2.55;;
82292;SDS011;71892;14.836;105.234;2023-12-07T01:24:10;3.80;;;1.80;;
82292;SDS011;71892;14.836;105.234;2023-12-07T01:26:37;4.28;;;1.10;;
82292;SDS011;71892;14.836;105.234;2023-12-07T01:29:03;3.55;;;1.42;;
82292;SDS011;71892;14.836;105.234;2023-12-07T01:31:29;7.25;;;1.63;;
82292;SDS011;71892;14.836;105.234;2023-12-07T01:33:56;3.28;;;1.25;;
82292;SDS011;71892;14.836;105.234;2023-12-07T01:36:22;6.90;;;1.50;;
82292;SDS011;71892;14.836;105.234;2023-12-07T01:38:48;5.43;;;1.48;;
82292;SDS011;71892;14.836;105.234;2023-12-07T01:41:15;3.30;;;1.15;;
82292;SDS011;71892;14.836;105.234;2023-12-07T01:43:47;3.05;;;1.17;;
82292;SDS011;71892;14.836;105.234;2023-12-07T01:46:13;4.20;;;1.38;;
82292;SDS011;71892;14.836;105.234;2023-12-07T01:48:41;3.53;;;1.33;;
82292;SDS011;71892;14.836;105.234;2023-12-07T01:51:08;3.75;;;1.73;;
82292;SDS011;71892;14.836;105.234;2023-12-07T01:53:37;2.80;;;1.00;;
82292;SDS011;71892;14.836;105.234;2023-12-07T01:56:05;3.03;;;1.20;;
82292;SDS011;71892;14.836;105.234;2023-12-07T01:58:33;2.80;;;1.00;;
82292;SDS011;71892;14.836;105.234;2023-12-07T02:01:00;4.32;;;1.50;;
82292;SDS011;71892;14.836;105.234;2023-12-07T02:03:27;2.50;;;1.00;;
82292;SDS011;71892;14.836;105.234;2023-12-07T02:05:55;2.72;;;0.90;;
82292;SDS011;71892;14.836;105.234;2023-12-07T02:08:23;2.75;;;1.05;;
82292;SDS011;71892;14.836;105.234;2023-12-07T02:10:49;1.98;;;0.80;;
82292;SDS011;71892;14.836;105.234;2023-12-07T02:13:16;2.92;;;1.20;;
82292;SDS011;71892;14.836;105.234;2023-12-07T02:15:43;2.83;;;1.05;;
82292;SDS011;71892;14.836;105.234;2023-12-07T02:23:31;2.88;;;1.15;;
82292;SDS011;71892;14.836;105.234;2023-12-07T02:26:01;3.95;;;1.45;;
82292;SDS011;71892;14.836;105.234;2023-12-07T02:28:29;4.25;;;1.20;;
82292;SDS011;71892;14.836;105.234;2023-12-07T02:30:56;4.78;;;1.17;;
82292;SDS011;71892;14.836;105.234;2023-12-07T02:33:22;4.85;;;1.40;;
82292;SDS011;71892;14.836;105.234;2023-12-07T02:35:49;2.50;;;1.20;;
82292;SDS011;71892;14.836;105.234;2023-12-07T02:38:15;2.58;;;1.20;;
82292;SDS011;71892;14.836;105.234;2023-12-07T02:40:43;3.85;;;1.40;;
82292;SDS011;71892;14.836;105.234;2023-12-07T02:43:11;3.42;;;1.42;;
82292;SDS011;71892;14.836;105.234;2023-12-07T02:45:38;3.20;;;1.00;;
82292;SDS011;71892;14.836;105.234;2023-12-07T02:48:05;4.72;;;1.30;;
82292;SDS011;71892;14.836;105.234;2023-12-07T02:50:31;3.45;;;1.35;;
82292;SDS011;71892;14.836;105.234;2023-12-07T02:52:57;3.20;;;1.40;;
82292;SDS011;71892;14.836;105.234;2023-12-07T02:55:24;3.40;;;1.20;;
82292;SDS011;71892;14.836;105.234;2023-12-07T02:57:50;2.47;;;1.13;;
82292;SDS011;71892;14.836;105.234;2023-12-07T03:00:17;4.28;;;1.73;;
82292;SDS011;71892;14.836;105.234;2023-12-07T03:02:43;3.67;;;1.35;;
82292;SDS011;71892;14.836;105.234;2023-12-07T03:05:10;3.38;;;1.30;;
82292;SDS011;71892;14.836;105.234;2023-12-07T03:07:36;2.72;;;1.40;;
82292;SDS011;71892;14.836;105.234;2023-12-07T03:10:03;4.35;;;1.50;;
82292;SDS011;71892;14.836;105.234;2023-12-07T03:12:30;2.80;;;1.23;;
82292;SDS011;71892;14.836;105.234;2023-12-07T03:14:56;2.67;;;1.10;;
82292;SDS011;71892;14.836;105.234;2023-12-07T03:17:23;3.50;;;1.33;;
82292;SDS011;71892;14.836;105.234;2023-12-07T03:19:49;2.58;;;1.10;;
82292;SDS011;71892;14.836;105.234;2023-12-07T03:22:16;2.47;;;1.10;;
82292;SDS011;71892;14.836;105.234;2023-12-07T03:24:46;3.00;;;1.30;;
82292;SDS011;71892;14.836;105.234;2023-12-07T03:27:17;4.22;;;1.33;;
82292;SDS011;71892;14.836;105.234;2023-12-07T03:29:43;3.60;;;1.63;;
82292;SDS011;71892;14.836;105.234;2023-12-07T03:32:10;2.50;;;1.17;;
82292;SDS011;71892;14.836;105.234;2023-12-07T03:34:36;3.15;;;1.20;;
82292;SDS011;71892;14.836;105.234;2023-12-07T03:37:02;3.10;;;1.00;;
82292;SDS011;71892;14.836;105.234;2023-12-07T03:39:29;5.07;;;1.20;;
82292;SDS011;71892;14.836;105.234;2023-12-07T03:41:57;1.92;;;0.90;;
82292;SDS011;71892;14.836;105.234;2023-12-07T03:44:24;3.72;;;1.40;;
82292;SDS011;71892;14.836;105.234;2023-12-07T03:46:52;4.35;;;1.30;;
82292;SDS011;71892;14.836;105.234;2023-12-07T03:49:18;3.53;;;1.30;;
82292;SDS011;71892;14.836;105.234;2023-12-07T03:51:45;3.20;;;1.17;;
82292;SDS011;71892;14.836;105.234;2023-12-07T03:54:11;3.28;;;1.27;;
82292;SDS011;71892;14.836;105.234;2023-12-07T03:56:38;2.65;;;1.25;;
82292;SDS011;71892;14.836;105.234;2023-12-07T03:59:06;2.80;;;1.20;;
82292;SDS011;71892;14.836;105.234;2023-12-07T04:01:32;2.92;;;0.98;;
82292;SDS011;71892;14.836;105.234;2023-12-07T04:03:59;2.53;;;1.38;;
82292;SDS011;71892;14.836;105.234;2023-12-07T04:06:26;4.18;;;1.20;;
82292;SDS011;71892;14.836;105.234;2023-12-07T04:08:52;3.72;;;1.60;;
82292;SDS011;71892;14.836;105.234;2023-12-07T04:11:19;7.40;;;1.30;;
82292;SDS011;71892;14.836;105.234;2023-12-07T04:13:45;3.75;;;1.20;;
82292;SDS011;71892;14.836;105.234;2023-12-07T04:16:12;3.25;;;1.40;;
82292;SDS011;71892;14.836;105.234;2023-12-07T04:18:38;5.68;;;1.92;;
82292;SDS011;71892;14.836;105.234;2023-12-07T04:21:04;4.30;;;1.38;;
82292;SDS011;71892;14.836;105.234;2023-12-07T04:23:31;3.50;;;1.42;;
82292;SDS011;71892;14.836;105.234;2023-12-07T04:25:58;5.40;;;1.10;;
82292;SDS011;71892;14.836;105.234;2023-12-07T04:28:25;8.63;;;1.60;;
82292;SDS011;71892;14.836;105.234;2023-12-07T04:30:51;3.30;;;1.10;;
82292;SDS011;71892;14.836;105.234;2023-12-07T04:33:17;3.53;;;1.50;;
82292;SDS011;71892;14.836;105.234;2023-12-07T04:35:44;2.33;;;1.02;;
82292;SDS011;71892;14.836;105.234;2023-12-07T04:38:10;3.95;;;1.25;;
82292;SDS011;71892;14.836;105.234;2023-12-07T04:40:37;2.88;;;1.30;;
82292;SDS011;71892;14.836;105.234;2023-12-07T04:43:03;2.97;;;1.33;;
82292;SDS011;71892;14.836;105.234;2023-12-07T04:45:29;3.53;;;1.50;;
82292;SDS011;71892;14.836;105.234;2023-12-07T04:47:56;2.55;;;1.13;;
82292;SDS011;71892;14.836;105.234;2023-12-07T04:50:23;8.18;;;2.92;;
82292;SDS011;71892;14.836;105.234;2023-12-07T04:52:49;6.30;;;1.55;;
82292;SDS011;71892;14.836;105.234;2023-12-07T04:55:16;4.65;;;1.30;;
82292;SDS011;71892;14.836;105.234;2023-12-07T04:57:42;4.07;;;1.30;;
82292;SDS011;71892;14.836;105.234;2023-12-07T05:00:08;3.08;;;1.30;;
82292;SDS011;71892;14.836;105.234;2023-12-07T05:02:37;3.97;;;1.38;;
82292;SDS011;71892;14.836;105.234;2023-12-07T05:05:03;3.15;;;1.20;;
82292;SDS011;71892;14.836;105.234;2023-12-07T05:07:30;2.75;;;1.05;;
82292;SDS011;71892;14.836;105.234;2023-12-07T05:09:57;4.72;;;1.80;;
82292;SDS011;71892;14.836;105.234;2023-12-07T05:12:23;3.67;;;1.40;;
82292;SDS011;71892;14.836;105.234;2023-12-07T05:14:50;4.10;;;1.60;;
82292;SDS011;71892;14.836;105.234;2023-12-07T05:17:16;6.07;;;1.60;;
82292;SDS011;71892;14.836;105.234;2023-12-07T05:19:43;5.53;;;2.25;;
82292;SDS011;71892;14.836;105.234;2023-12-07T05:22:10;4.68;;;1.52;;
82292;SDS011;71892;14.836;105.234;2023-12-07T05:24:37;3.38;;;1.35;;
82292;SDS011;71892;14.836;105.234;2023-12-07T05:27:03;5.30;;;1.30;;
82292;SDS011;71892;14.836;105.234;2023-12-07T05:29:30;4.03;;;1.17;;
82292;SDS011;71892;14.836;105.234;2023-12-07T05:31:56;3.58;;;1.30;;
82292;SDS011;71892;14.836;105.234;2023-12-07T05:34:23;2.47;;;1.23;;
82292;SDS011;71892;14.836;105.234;2023-12-07T05:36:49;6.75;;;1.50;;
82292;SDS011;71892;14.836;105.234;2023-12-07T05:39:15;3.42;;;1.30;;
82292;SDS011;71892;14.836;105.234;2023-12-07T05:41:43;2.83;;;1.30;;
82292;SDS011;71892;14.836;105.234;2023-12-07T05:44:09;5.28;;;1.45;;
82292;SDS011;71892;14.836;105.234;2023-12-07T05:46:35;4.20;;;1.55;;
82292;SDS011;71892;14.836;105.234;2023-12-07T05:49:02;4.22;;;1.63;;
82292;SDS011;71892;14.836;105.234;2023-12-07T05:51:29;6.43;;;2.20;;
82292;SDS011;71892;14.836;105.234;2023-12-07T05:53:55;4.20;;;1.40;;
82292;SDS011;71892;14.836;105.234;2023-12-07T05:56:22;6.97;;;1.92;;
82292;SDS011;71892;14.836;105.234;2023-12-07T05:58:48;3.22;;;1.48;;
82292;SDS011;71892;14.836;105.234;2023-12-07T06:01:18;9.30;;;1.67;;
82292;SDS011;71892;14.836;105.234;2023-12-07T06:03:44;3.55;;;1.23;;
82292;SDS011;71892;14.836;105.234;2023-12-07T06:06:11;3.45;;;1.70;;
82292;SDS011;71892;14.836;105.234;2023-12-07T06:08:38;4.13;;;1.70;;
82292;SDS011;71892;14.836;105.234;2023-12-07T06:11:04;6.78;;;1.85;;
82292;SDS011;71892;14.836;105.234;2023-12-07T06:13:31;3.08;;;1.30;;
82292;SDS011;71892;14.836;105.234;2023-12-07T06:15:57;5.13;;;1.40;;
82292;SDS011;71892;14.836;105.234;2023-12-07T06:18:24;5.25;;;1.65;;
82292;SDS011;71892;14.836;105.234;2023-12-07T06:20:51;3.80;;;1.42;;
82292;SDS011;71892;14.836;105.234;2023-12-07T06:23:17;4.88;;;1.52;;
82292;SDS011;71892;14.836;105.234;2023-12-07T06:25:43;8.35;;;2.28;;
82292;SDS011;71892;14.836;105.234;2023-12-07T06:28:10;10.38;;;4.82;;
82292;SDS011;71892;14.836;105.234;2023-12-07T06:30:36;4.30;;;1.70;;
82292;SDS011;71892;14.836;105.234;2023-12-07T06:33:03;6.47;;;3.63;;
82292;SDS011;71892;14.836;105.234;2023-12-07T06:35:30;7.28;;;3.10;;
82292;SDS011;71892;14.836;105.234;2023-12-07T06:37:56;3.70;;;1.55;;
82292;SDS011;71892;14.836;105.234;2023-12-07T06:40:22;3.60;;;1.67;;
82292;SDS011;71892;14.836;105.234;2023-12-07T06:42:49;4.68;;;2.15;;
82292;SDS011;71892;14.836;105.234;2023-12-07T06:45:15;4.85;;;1.80;;
82292;SDS011;71892;14.836;105.234;2023-12-07T06:47:47;5.95;;;2.70;;
82292;SDS011;71892;14.836;105.234;2023-12-07T06:50:22;3.97;;;1.92;;
82292;SDS011;71892;14.836;105.234;2023-12-07T06:52:51;10.02;;;1.90;;
82292;SDS011;71892;14.836;105.234;2023-12-07T06:55:18;5.60;;;1.75;;
82292;SDS011;71892;14.836;105.234;2023-12-07T06:57:53;4.47;;;2.17;;
82292;SDS011;71892;14.836;105.234;2023-12-07T07:00:26;5.82;;;1.98;;
82292;SDS011;71892;14.836;105.234;2023-12-07T07:02:58;7.43;;;1.83;;
82292;SDS011;71892;14.836;105.234;2023-12-07T07:07:53;5.95;;;2.10;;
82292;SDS011;71892;14.836;105.234;2023-12-07T07:10:24;5.63;;;2.10;;
82292;SDS011;71892;14.836;105.234;2023-12-07T07:12:50;6.63;;;1.73;;
82292;SDS011;71892;14.836;105.234;2023-12-07T07:15:17;4.90;;;2.17;;
82292;SDS011;71892;14.836;105.234;2023-12-07T07:18:02;5.30;;;2.30;;
82292;SDS011;71892;14.836;105.234;2023-12-07T07:20:34;7.10;;;2.10;;
82292;SDS011;71892;14.836;105.234;2023-12-07T07:23:03;6.40;;;1.90;;
82292;SDS011;71892;14.836;105.234;2023-12-07T07:25:47;3.95;;;2.08;;
82292;SDS011;71892;14.836;105.234;2023-12-07T07:28:29;3.55;;;1.77;;
82292;SDS011;71892;14.836;105.234;2023-12-07T07:31:04;4.93;;;2.33;;
82292;SDS011;71892;14.836;105.234;2023-12-07T07:33:33;3.45;;;1.70;;
82292;SDS011;71892;14.836;105.234;2023-12-07T07:36:10;4.95;;;2.47;;
82292;SDS011;71892;14.836;105.234;2023-12-07T07:38:41;5.63;;;1.98;;
82292;SDS011;71892;14.836;105.234;2023-12-07T07:41:16;4.30;;;2.20;;
82292;SDS011;71892;14.836;105.234;2023-12-07T07:43:42;4.80;;;1.73;;
82292;SDS011;71892;14.836;105.234;2023-12-07T07:46:16;4.45;;;2.28;;
82292;SDS011;71892;14.836;105.234;2023-12-07T07:48:48;5.00;;;1.88;;
82292;SDS011;71892;14.836;105.234;2023-12-07T07:51:14;4.93;;;1.90;;
82292;SDS011;71892;14.836;105.234;2023-12-07T07:53:59;4.95;;;2.17;;
82292;SDS011;71892;14.836;105.234;2023-12-07T07:56:36;5.30;;;2.08;;
82292;SDS011;71892;14.836;105.234;2023-12-07T07:59:12;6.57;;;3.70;;
82292;SDS011;71892;14.836;105.234;2023-12-07T08:01:50;4.60;;;2.17;;
82292;SDS011;71892;14.836;105.234;2023-12-07T08:04:26;6.20;;;2.45;;
82292;SDS011;71892;14.836;105.234;2023-12-07T08:06:55;5.45;;;2.30;;
82292;SDS011;71892;14.836;105.234;2023-12-07T08:09:36;5.00;;;2.22;;
82292;SDS011;71892;14.836;105.234;2023-12-07T08:12:03;7.05;;;3.30;;
82292;SDS011;71892;14.836;105.234;2023-12-07T08:14:54;4.57;;;2.35;;
82292;SDS011;71892;14.836;105.234;2023-12-07T08:17:23;5.60;;;2.83;;
82292;SDS011;71892;14.836;105.234;2023-12-07T08:19:58;7.75;;;2.63;;
82292;SDS011;71892;14.836;105.234;2023-12-07T08:22:33;7.00;;;2.17;;
82292;SDS011;71892;14.836;105.234;2023-12-07T08:25:07;7.05;;;2.55;;
82292;SDS011;71892;14.836;105.234;2023-12-07T08:27:40;5.22;;;2.53;;
82292;SDS011;71892;14.836;105.234;2023-12-07T08:30:21;4.78;;;2.10;;
82292;SDS011;71892;14.836;105.234;2023-12-07T08:32:48;5.18;;;2.33;;
82292;SDS011;71892;14.836;105.234;2023-12-07T08:35:14;7.03;;;3.72;;
82292;SDS011;71892;14.836;105.234;2023-12-07T08:37:55;8.43;;;3.10;;
82292;SDS011;71892;14.836;105.234;2023-12-07T08:40:32;9.63;;;2.10;;
82292;SDS011;71892;14.836;105.234;2023-12-07T08:43:06;3.88;;;1.70;;
82292;SDS011;71892;14.836;105.234;2023-12-07T08:48:03;3.95;;;2.08;;
82292;SDS011;71892;14.836;105.234;2023-12-07T08:53:27;6.53;;;2.70;;
82292;SDS011;71892;14.836;105.234;2023-12-07T08:55:56;6.18;;;2.22;;
82292;SDS011;71892;14.836;105.234;2023-12-07T08:58:23;6.70;;;2.63;;
82292;SDS011;71892;14.836;105.234;2023-12-07T09:00:52;4.47;;;2.33;;
82292;SDS011;71892;14.836;105.234;2023-12-07T09:03:18;6.93;;;2.78;;
82292;SDS011;71892;14.836;105.234;2023-12-07T09:05:45;6.50;;;2.38;;
82292;SDS011;71892;14.836;105.234;2023-12-07T09:08:11;12.80;;;3.45;;
82292;SDS011;71892;14.836;105.234;2023-12-07T09:10:37;12.13;;;6.72;;
82292;SDS011;71892;14.836;105.234;2023-12-07T09:13:04;9.88;;;5.70;;
82292;SDS011;71892;14.836;105.234;2023-12-07T09:15:31;8.27;;;4.95;;
82292;SDS011;71892;14.836;105.234;2023-12-07T09:17:57;4.30;;;2.08;;
82292;SDS011;71892;14.836;105.234;2023-12-07T09:20:24;7.05;;;2.28;;
82292;SDS011;71892;14.836;105.234;2023-12-07T09:22:50;6.55;;;2.30;;
82292;SDS011;71892;14.836;105.234;2023-12-07T09:25:17;6.90;;;2.55;;
82292;SDS011;71892;14.836;105.234;2023-12-07T09:27:43;3.95;;;1.85;;
82292;SDS011;71892;14.836;105.234;2023-12-07T09:30:10;5.43;;;2.55;;
82292;SDS011;71892;14.836;105.234;2023-12-07T09:32:37;8.93;;;2.45;;
82292;SDS011;71892;14.836;105.234;2023-12-07T09:35:05;5.80;;;2.25;;
82292;SDS011;71892;14.836;105.234;2023-12-07T09:37:40;6.15;;;2.28;;
82292;SDS011;71892;14.836;105.234;2023-12-07T09:40:06;4.13;;;2.15;;
82292;SDS011;71892;14.836;105.234;2023-12-07T09:42:33;4.82;;;2.55;;
82292;SDS011;71892;14.836;105.234;2023-12-07T09:44:59;5.35;;;1.83;;
82292;SDS011;71892;14.836;105.234;2023-12-07T09:47:27;4.95;;;1.80;;
82292;SDS011;71892;14.836;105.234;2023-12-07T09:49:53;4.05;;;1.50;;
82292;SDS011;71892;14.836;105.234;2023-12-07T09:52:21;9.32;;;2.00;;
82292;SDS011;71892;14.836;105.234;2023-12-07T09:54:48;9.10;;;1.98;;
82292;SDS011;71892;14.836;105.234;2023-12-07T09:57:16;3.17;;;1.58;;
82292;SDS011;71892;14.836;105.234;2023-12-07T09:59:42;8.82;;;2.35;;
82292;SDS011;71892;14.836;105.234;2023-12-07T10:02:08;6.35;;;2.45;;
82292;SDS011;71892;14.836;105.234;2023-12-07T10:04:35;5.55;;;3.03;;
82292;SDS011;71892;14.836;105.234;2023-12-07T10:07:02;7.47;;;3.28;;
82292;SDS011;71892;14.836;105.234;2023-12-07T10:09:28;10.23;;;3.50;;
82292;SDS011;71892;14.836;105.234;2023-12-07T10:12:04;10.38;;;5.47;;
82292;SDS011;71892;14.836;105.234;2023-12-07T10:14:31;11.50;;;6.38;;
82292;SDS011;71892;14.836;105.234;2023-12-07T10:16:58;15.07;;;4.40;;
82292;SDS011;71892;14.836;105.234;2023-12-07T10:19:25;13.90;;;3.28;;
82292;SDS011;71892;14.836;105.234;2023-12-07T10:21:53;7.60;;;2.15;;
82292;SDS011;71892;14.836;105.234;2023-12-07T10:24:20;5.63;;;2.05;;
82292;SDS011;71892;14.836;105.234;2023-12-07T10:26:48;8.88;;;2.80;;
82292;SDS011;71892;14.836;105.234;2023-12-07T10:29:18;6.35;;;3.22;;
82292;SDS011;71892;14.836;105.234;2023-12-07T10:31:45;37.35;;;5.40;;
82292;SDS011;71892;14.836;105.234;2023-12-07T10:34:17;10.48;;;3.88;;
82292;SDS011;71892;14.836;105.234;2023-12-07T10:36:48;22.92;;;4.78;;
82292;SDS011;71892;14.836;105.234;2023-12-07T10:39:18;8.27;;;4.47;;
82292;SDS011;71892;14.836;105.234;2023-12-07T10:41:45;19.73;;;4.25;;
82292;SDS011;71892;14.836;105.234;2023-12-07T10:44:16;11.55;;;3.67;;
82292;SDS011;71892;14.836;105.234;2023-12-07T10:46:43;10.38;;;4.30;;
82292;SDS011;71892;14.836;105.234;2023-12-07T10:49:15;19.38;;;5.80;;
82292;SDS011;71892;14.836;105.234;2023-12-07T10:52:03;16.23;;;8.88;;
82292;SDS011;71892;14.836;105.234;2023-12-07T10:57:05;23.02;;;11.52;;
82292;SDS011;71892;14.836;105.234;2023-12-07T10:59:32;35.47;;;15.48;;
82292;SDS011;71892;14.836;105.234;2023-12-07T11:02:03;24.55;;;15.00;;
82292;SDS011;71892;14.836;105.234;2023-12-07T11:04:31;31.27;;;18.50;;
82292;SDS011;71892;14.836;105.234;2023-12-07T11:07:00;35.30;;;20.08;;
82292;SDS011;71892;14.836;105.234;2023-12-07T11:09:34;48.17;;;25.08;;
82292;SDS011;71892;14.836;105.234;2023-12-07T11:12:09;50.78;;;26.90;;
82292;SDS011;71892;14.836;105.234;2023-12-07T11:14:44;47.78;;;24.13;;
82292;SDS011;71892;14.836;105.234;2023-12-07T11:17:11;39.13;;;21.25;;
82292;SDS011;71892;14.836;105.234;2023-12-07T11:22:11;28.52;;;17.05;;
82292;SDS011;71892;14.836;105.234;2023-12-07T11:24:59;21.65;;;14.20;;
82292;SDS011;71892;14.836;105.234;2023-12-07T11:29:57;18.38;;;11.82;;
82292;SDS011;71892;14.836;105.234;2023-12-07T11:32:26;22.02;;;11.93;;
82292;SDS011;71892;14.836;105.234;2023-12-07T11:34:52;17.73;;;10.90;;
82292;SDS011;71892;14.836;105.234;2023-12-07T11:37:19;19.27;;;11.80;;
82292;SDS011;71892;14.836;105.234;2023-12-07T11:39:45;27.33;;;13.18;;
82292;SDS011;71892;14.836;105.234;2023-12-07T11:42:12;21.35;;;12.90;;
82292;SDS011;71892;14.836;105.234;2023-12-07T11:44:41;20.45;;;12.20;;
82292;SDS011;71892;14.836;105.234;2023-12-07T11:47:15;20.15;;;13.18;;
82292;SDS011;71892;14.836;105.234;2023-12-07T11:49:42;25.25;;;13.55;;
82292;SDS011;71892;14.836;105.234;2023-12-07T11:52:15;27.00;;;14.25;;
82292;SDS011;71892;14.836;105.234;2023-12-07T11:54:46;23.50;;;13.77;;
82292;SDS011;71892;14.836;105.234;2023-12-07T11:57:16;24.48;;;14.63;;
82292;SDS011;71892;14.836;105.234;2023-12-07T11:59:44;27.42;;;15.60;;
82292;SDS011;71892;14.836;105.234;2023-12-07T12:02:13;25.40;;;13.88;;
82292;SDS011;71892;14.836;105.234;2023-12-07T12:04:40;29.17;;;15.68;;
82292;SDS011;71892;14.836;105.234;2023-12-07T12:07:06;24.70;;;14.35;;
82292;SDS011;71892;14.836;105.234;2023-12-07T12:09:33;24.15;;;15.10;;
82292;SDS011;71892;14.836;105.234;2023-12-07T12:11:59;28.42;;;16.40;;
82292;SDS011;71892;14.836;105.234;2023-12-07T12:14:26;31.73;;;17.67;;
82292;SDS011;71892;14.836;105.234;2023-12-07T12:16:56;29.00;;;16.30;;
82292;SDS011;71892;14.836;105.234;2023-12-07T12:19:23;33.33;;;16.73;;
82292;SDS011;71892;14.836;105.234;2023-12-07T12:21:49;28.98;;;17.88;;
82292;SDS011;71892;14.836;105.234;2023-12-07T12:24:16;28.17;;;17.40;;
82292;SDS011;71892;14.836;105.234;2023-12-07T12:26:43;23.17;;;15.57;;
82292;SDS011;71892;14.836;105.234;2023-12-07T12:29:10;24.30;;;16.10;;
82292;SDS011;71892;14.836;105.234;2023-12-07T12:31:37;26.23;;;16.50;;
82292;SDS011;71892;14.836;105.234;2023-12-07T12:34:07;30.15;;;17.75;;
82292;SDS011;71892;14.836;105.234;2023-12-07T12:36:34;27.08;;;15.40;;
82292;SDS011;71892;14.836;105.234;2023-12-07T12:39:00;22.08;;;14.75;;
82292;SDS011;71892;14.836;105.234;2023-12-07T12:41:27;25.70;;;14.65;;
82292;SDS011;71892;14.836;105.234;2023-12-07T12:43:56;26.63;;;14.55;;
82292;SDS011;71892;14.836;105.234;2023-12-07T12:46:22;21.17;;;14.15;;
82292;SDS011;71892;14.836;105.234;2023-12-07T12:48:53;28.83;;;14.45;;
82292;SDS011;71892;14.836;105.234;2023-12-07T12:51:26;23.30;;;14.30;;
82292;SDS011;71892;14.836;105.234;2023-12-07T12:53:55;23.35;;;12.63;;
82292;SDS011;71892;14.836;105.234;2023-12-07T12:56:23;19.80;;;12.10;;
82292;SDS011;71892;14.836;105.234;2023-12-07T12:58:49;19.20;;;12.18;;
82292;SDS011;71892;14.836;105.234;2023-12-07T13:01:17;18.05;;;13.00;;
82292;SDS011;71892;14.836;105.234;2023-12-07T13:03:44;19.20;;;11.98;;
82292;SDS011;71892;14.836;105.234;2023-12-07T13:06:14;19.70;;;12.82;;
82292;SDS011;71892;14.836;105.234;2023-12-07T13:08:44;18.38;;;13.63;;
82292;SDS011;71892;14.836;105.234;2023-12-07T13:11:17;20.90;;;12.32;;
82292;SDS011;71892;14.836;105.234;2023-12-07T13:13:45;18.25;;;12.07;;
82292;SDS011;71892;14.836;105.234;2023-12-07T13:16:12;26.17;;;13.70;;
82292;SDS011;71892;14.836;105.234;2023-12-07T13:18:40;19.67;;;13.75;;
82292;SDS011;71892;14.836;105.234;2023-12-07T13:21:06;20.70;;;13.05;;
82292;SDS011;71892;14.836;105.234;2023-12-07T13:23:35;23.35;;;14.00;;
82292;SDS011;71892;14.836;105.234;2023-12-07T13:26:02;22.88;;;14.07;;
82292;SDS011;71892;14.836;105.234;2023-12-07T13:28:29;23.63;;;14.80;;
82292;SDS011;71892;14.836;105.234;2023-12-07T13:30:56;25.98;;;14.55;;
82292;SDS011;71892;14.836;105.234;2023-12-07T13:33:22;25.35;;;15.38;;
82292;SDS011;71892;14.836;105.234;2023-12-07T13:35:49;21.45;;;13.70;;
82292;SDS011;71892;14.836;105.234;2023-12-07T13:38:15;23.42;;;13.88;;
82292;SDS011;71892;14.836;105.234;2023-12-07T13:40:45;24.02;;;14.45;;
82292;SDS011;71892;14.836;105.234;2023-12-07T13:43:12;22.17;;;13.13;;
82292;SDS011;71892;14.836;105.234;2023-12-07T13:45:38;21.73;;;13.45;;
82292;SDS011;71892;14.836;105.234;2023-12-07T13:48:04;19.98;;;13.55;;
82292;SDS011;71892;14.836;105.234;2023-12-07T13:50:31;22.52;;;13.90;;
82292;SDS011;71892;14.836;105.234;2023-12-07T13:52:57;19.98;;;13.02;;
82292;SDS011;71892;14.836;105.234;2023-12-07T13:55:24;28.00;;;14.80;;
82292;SDS011;71892;14.836;105.234;2023-12-07T13:57:50;23.33;;;13.35;;
82292;SDS011;71892;14.836;105.234;2023-12-07T14:00:18;23.15;;;13.77;;
82292;SDS011;71892;14.836;105.234;2023-12-07T14:02:45;24.42;;;14.65;;
82292;SDS011;71892;14.836;105.234;2023-12-07T14:05:12;25.23;;;15.18;;
82292;SDS011;71892;14.836;105.234;2023-12-07T14:07:38;23.48;;;14.35;;
82292;SDS011;71892;14.836;105.234;2023-12-07T14:10:04;23.52;;;14.70;;
82292;SDS011;71892;14.836;105.234;2023-12-07T14:12:31;22.50;;;12.93;;
82292;SDS011;71892;14.836;105.234;2023-12-07T14:14:58;28.92;;;14.02;;
82292;SDS011;71892;14.836;105.234;2023-12-07T14:17:25;24.08;;;14.35;;
82292;SDS011;71892;14.836;105.234;2023-12-07T14:19:51;23.33;;;14.10;;
82292;SDS011;71892;14.836;105.234;2023-12-07T14:22:19;23.90;;;14.45;;
82292;SDS011;71892;14.836;105.234;2023-12-07T14:24:45;28.00;;;14.23;;
82292;SDS011;71892;14.836;105.234;2023-12-07T14:27:13;24.60;;;14.60;;
82292;SDS011;71892;14.836;105.234;2023-12-07T14:29:40;25.58;;;14.20;;
82292;SDS011;71892;14.836;105.234;2023-12-07T14:32:07;25.45;;;14.45;;
82292;SDS011;71892;14.836;105.234;2023-12-07T14:34:34;22.50;;;13.40;;
82292;SDS011;71892;14.836;105.234;2023-12-07T14:37:04;24.77;;;12.88;;
82292;SDS011;71892;14.836;105.234;2023-12-07T14:39:31;24.52;;;13.63;;